createdAt,value
2024-01-07T00:01:48.957Z,97255.00
2024-01-07T00:11:33.397Z,97257.00
2024-01-07T00:14:00.811Z,97248.00
2024-01-07T00:16:43.415Z,97207.00
2024-01-07T00:19:10.959Z,97254.00
2024-01-07T00:21:38.474Z,97258.00
2024-01-07T00:24:14.437Z,97263.00
2024-01-07T00:26:42.011Z,97232.00
2024-01-07T00:29:09.558Z,97216.00
2024-01-07T00:31:46.482Z,97257.00
2024-01-07T00:34:46.706Z,97243.00
2024-01-07T00:37:22.327Z,97256.00
2024-01-07T00:39:57.908Z,97229.00
2024-01-07T00:43:10.467Z,97249.00
2024-01-07T00:46:01.906Z,97228.00
2024-01-07T00:48:37.729Z,97234.00
2024-01-07T00:51:13.158Z,97239.00
2024-01-07T00:54:18.230Z,97270.00
2024-01-07T00:57:11.631Z,97261.00
2024-01-07T00:59:48.360Z,97242.00
2024-01-07T01:02:18.816Z,97249.00
2024-01-07T01:04:56.565Z,97233.00
2024-01-07T01:07:24.044Z,97226.00
2024-01-07T01:09:55.483Z,97261.00
2024-01-07T01:12:32.413Z,97245.00
2024-01-07T01:14:59.867Z,97264.00
2024-01-07T01:17:27.359Z,97243.00
2024-01-07T01:20:03.403Z,97233.00
2024-01-07T01:22:31.039Z,97263.00
2024-01-07T01:24:58.795Z,97263.00
2024-01-07T01:27:34.597Z,97235.00
2024-01-07T01:30:02.095Z,97234.00
2024-01-07T01:32:29.630Z,97273.00
2024-01-07T01:35:04.383Z,97264.00
2024-01-07T01:37:33.942Z,97263.00
2024-01-07T01:40:01.497Z,97270.00
2024-01-07T01:42:37.470Z,97263.00
2024-01-07T01:45:08.285Z,97279.00
2024-01-07T01:47:45.480Z,97281.00
2024-01-07T01:50:12.886Z,97260.00
2024-01-07T01:52:40.439Z,97245.00
2024-01-07T01:55:17.473Z,97280.00
2024-01-07T01:57:49.327Z,97278.00
2024-01-07T02:00:26.746Z,97231.00
2024-01-07T02:02:55.732Z,97246.00
2024-01-07T02:05:25.786Z,97282.00
2024-01-07T02:08:02.384Z,97237.00
2024-01-07T02:10:29.845Z,97277.00
2024-01-07T02:13:00.174Z,97247.00
2024-01-07T02:15:34.454Z,97280.00
2024-01-07T02:18:04.414Z,97240.00
2024-01-07T02:20:31.904Z,97278.00
2024-01-07T02:23:05.455Z,97270.00
2024-01-07T02:25:37.915Z,97255.00
2024-01-07T02:28:12.577Z,97283.00
2024-01-07T02:30:40.148Z,97283.00
2024-01-07T02:33:07.707Z,97257.00
2024-01-07T02:35:44.461Z,97294.00
2024-01-07T02:38:11.988Z,97281.00
2024-01-07T02:40:40.894Z,97282.00
2024-01-07T02:43:15.454Z,97277.00
2024-01-07T02:45:45.544Z,97280.00
2024-01-07T02:48:27.754Z,97289.00
2024-01-07T02:50:55.261Z,97254.00
2024-01-07T02:53:33.617Z,97285.00
2024-01-07T02:56:07.302Z,97286.00
2024-01-07T02:58:45.790Z,97271.00
2024-01-07T03:01:13.356Z,97289.00
2024-01-07T03:03:42.728Z,97245.00
2024-01-07T03:06:16.382Z,97273.00
2024-01-07T03:08:43.948Z,97287.00
2024-01-07T03:11:12.831Z,97287.00
2024-01-07T03:13:47.386Z,97283.00
2024-01-07T03:16:21.255Z,97274.00
2024-01-07T03:18:55.601Z,97291.00
2024-01-07T03:21:24.058Z,97296.00
2024-01-07T03:23:51.946Z,97283.00
2024-01-07T03:26:28.411Z,97290.00
2024-01-07T03:28:55.774Z,97291.00
2024-01-07T03:31:23.328Z,97288.00
2024-01-07T03:33:57.689Z,97290.00
2024-01-07T03:36:25.298Z,97286.00
2024-01-07T03:38:52.732Z,97295.00
2024-01-07T03:41:28.440Z,97289.00
2024-01-07T03:43:56.237Z,97295.00
2024-01-07T03:46:23.701Z,97299.00
2024-01-07T03:48:57.598Z,97299.00
2024-01-07T03:51:25.271Z,97267.00
2024-01-07T03:53:52.629Z,97255.00
2024-01-07T03:56:34.421Z,97296.00
2024-01-07T03:59:01.884Z,97295.00
2024-01-07T04:01:29.464Z,97274.00
2024-01-07T04:04:03.624Z,97288.00
2024-01-07T04:06:31.116Z,97304.00
2024-01-07T04:08:58.654Z,97298.00
2024-01-07T04:11:34.429Z,97285.00
2024-01-07T04:14:02.010Z,97314.00
2024-01-07T04:16:29.387Z,97304.00
2024-01-07T04:19:03.502Z,97308.00
2024-01-07T04:21:31.028Z,97301.00
2024-01-07T04:23:58.473Z,97310.00
2024-01-07T04:26:34.456Z,97315.00
2024-01-07T04:29:01.958Z,97317.00
2024-01-07T04:31:29.498Z,97309.00
2024-01-07T04:34:03.577Z,97310.00
2024-01-07T04:36:31.455Z,97315.00
2024-01-07T04:38:58.935Z,97312.00
2024-01-07T04:41:34.545Z,97316.00
2024-01-07T04:44:01.893Z,97309.00
2024-01-07T04:46:29.312Z,97322.00
2024-01-07T04:49:03.577Z,97281.00
2024-01-07T04:51:31.024Z,97316.00
2024-01-07T04:53:58.437Z,97307.00
2024-01-07T04:56:33.441Z,97324.00
2024-01-07T04:59:00.954Z,97318.00
2024-01-07T05:01:28.558Z,97325.00
2024-01-07T05:04:10.522Z,97326.00
2024-01-07T05:06:38.244Z,97332.00
2024-01-07T05:09:05.690Z,97328.00
2024-01-07T05:11:41.497Z,97329.00
2024-01-07T05:14:15.689Z,97336.00
2024-01-07T05:16:49.537Z,97314.00
2024-01-07T05:19:17.195Z,97332.00
2024-01-07T05:21:44.743Z,97332.00
2024-01-07T05:24:18.545Z,97320.00
2024-01-07T05:26:47.363Z,97343.00
2024-01-07T05:29:14.881Z,97327.00
2024-01-07T05:31:48.704Z,97342.00
2024-01-07T05:34:16.557Z,97316.00
2024-01-07T05:36:44.135Z,97307.00
2024-01-07T05:39:18.501Z,97316.00
2024-01-07T05:41:47.376Z,97332.00
2024-01-07T05:44:14.832Z,97333.00
2024-01-07T05:46:48.537Z,97354.00
2024-01-07T05:49:16.154Z,97325.00
2024-01-07T05:51:43.813Z,97345.00
2024-01-07T05:54:17.462Z,97346.00
2024-01-07T05:56:46.353Z,97353.00
2024-01-07T05:59:13.853Z,97336.00
2024-01-07T06:01:47.493Z,97311.00
2024-01-07T06:04:15.149Z,97354.00
2024-01-07T06:06:42.818Z,97360.00
2024-01-07T06:09:16.485Z,97328.00
2024-01-07T06:11:43.980Z,97319.00
2024-01-07T06:14:12.932Z,97335.00
2024-01-07T06:16:46.597Z,97332.00
2024-01-07T06:19:14.249Z,97335.00
2024-01-07T06:21:41.772Z,97373.00
2024-01-07T06:24:16.463Z,97378.00
2024-01-07T06:26:44.247Z,97375.00
2024-01-07T06:29:13.200Z,97366.00
2024-01-07T06:31:51.540Z,97358.00
2024-01-07T06:34:19.131Z,97365.00
2024-01-07T06:36:46.666Z,97380.00
2024-01-07T06:39:20.560Z,97340.00
2024-01-07T06:41:48.242Z,97391.00
2024-01-07T06:44:17.340Z,97356.00
2024-01-07T06:46:51.501Z,97352.00
2024-01-07T06:49:18.974Z,97345.00
2024-01-07T06:51:46.681Z,97405.00
2024-01-07T06:54:20.491Z,97392.00
2024-01-07T06:56:47.935Z,97396.00
2024-01-07T06:59:16.721Z,97360.00
2024-01-07T07:01:50.618Z,97369.00
2024-01-07T07:04:18.253Z,97409.00
2024-01-07T07:06:45.785Z,97384.00
2024-01-07T07:09:19.547Z,97376.00
2024-01-07T07:11:47.055Z,97395.00
2024-01-07T07:14:15.886Z,97394.00
2024-01-07T07:16:49.547Z,97412.00
2024-01-07T07:19:17.028Z,97391.00
2024-01-07T07:21:45.282Z,97426.00
2024-01-07T07:24:19.636Z,97429.00
2024-01-07T07:26:47.055Z,97383.00
2024-01-07T07:29:16.020Z,97419.00
2024-01-07T07:31:50.610Z,97429.00
2024-01-07T07:34:18.143Z,97425.00
2024-01-07T07:36:45.664Z,97397.00
2024-01-07T07:39:19.600Z,97395.00
2024-01-07T07:41:47.187Z,97422.00
2024-01-07T07:44:15.969Z,97393.00
2024-01-07T07:46:49.601Z,97435.00
2024-01-07T07:49:17.185Z,97435.00
2024-01-07T07:51:45.319Z,97389.00
2024-01-07T07:54:19.594Z,97416.00
2024-01-07T07:56:47.233Z,97446.00
2024-01-07T07:59:16.338Z,97401.00
2024-01-07T08:01:50.717Z,97462.00
2024-01-07T08:04:18.341Z,97429.00
2024-01-07T08:06:45.990Z,97403.00
2024-01-07T08:09:19.598Z,97451.00
2024-01-07T08:11:47.133Z,97458.00
2024-01-07T08:14:16.174Z,97429.00
2024-01-07T08:16:50.685Z,97439.00
2024-01-07T08:19:18.277Z,97461.00
2024-01-07T08:21:45.895Z,97462.00
2024-01-07T08:24:19.581Z,97457.00
2024-01-07T08:26:47.215Z,97434.00
2024-01-07T08:29:16.332Z,97488.00
2024-01-07T08:32:11.391Z,97442.00
2024-01-07T08:34:44.432Z,97441.00
2024-01-07T08:37:18.599Z,97496.00
2024-01-07T08:39:46.168Z,97453.00
2024-01-07T08:42:13.676Z,97500.00
2024-01-07T08:44:49.721Z,97433.00
2024-01-07T08:47:17.563Z,97480.00
2024-01-07T08:49:50.991Z,97480.00
2024-01-07T08:52:27.682Z,97477.00
2024-01-07T08:54:55.239Z,97479.00
2024-01-07T08:57:40.038Z,97493.00
2024-01-07T09:00:19.353Z,97495.00
2024-01-07T09:03:23.497Z,97460.00
2024-01-07T09:06:02.087Z,97502.00
2024-01-07T09:08:36.674Z,97460.00
2024-01-07T09:11:05.887Z,97487.00
2024-01-07T09:13:33.499Z,97497.00
2024-01-07T09:16:08.717Z,97459.00
2024-01-07T09:18:36.654Z,97469.00
2024-01-07T09:21:07.050Z,97516.00
2024-01-07T09:23:40.631Z,97503.00
2024-01-07T09:26:10.442Z,97521.00
2024-01-07T09:28:38.014Z,97509.00
2024-01-07T09:31:13.953Z,97527.00
2024-01-07T09:33:44.446Z,97502.00
2024-01-07T09:36:29.682Z,97538.00
2024-01-07T09:39:01.490Z,97520.00
2024-01-07T09:41:37.669Z,97541.00
2024-01-07T09:44:07.073Z,97530.00
2024-01-07T09:46:48.641Z,97490.00
2024-01-07T09:49:16.378Z,97527.00
2024-01-07T09:51:44.142Z,97530.00
2024-01-07T09:54:20.486Z,97510.00
2024-01-07T09:56:52.094Z,97518.00
2024-01-07T09:59:28.689Z,97542.00
2024-01-07T10:01:58.144Z,97519.00
2024-01-07T10:04:25.983Z,97505.00
2024-01-07T10:07:00.681Z,97512.00
2024-01-07T10:09:34.540Z,97496.00
2024-01-07T10:12:11.705Z,97522.00
2024-01-07T10:14:41.388Z,97533.00
2024-01-07T10:17:26.392Z,97512.00
2024-01-07T10:20:05.392Z,97533.00
2024-01-07T10:22:43.493Z,97532.00
2024-01-07T10:25:13.699Z,97527.00
2024-01-07T10:27:41.281Z,97522.00
2024-01-07T10:30:17.794Z,97485.00
2024-01-07T10:32:46.678Z,97513.00
2024-01-07T10:35:14.671Z,97517.00
2024-01-07T10:37:48.645Z,97498.00
2024-01-07T10:40:16.303Z,97522.00
2024-01-07T10:42:58.843Z,97515.00
2024-01-07T10:45:28.248Z,97516.00
2024-01-07T10:48:08.057Z,97528.00
2024-01-07T10:50:37.866Z,97509.00
2024-01-07T10:53:08.373Z,97514.00
2024-01-07T10:55:42.641Z,97526.00
2024-01-07T10:58:12.838Z,97533.00
2024-01-07T11:00:40.530Z,97528.00
2024-01-07T11:03:19.703Z,97530.00
2024-01-07T11:05:58.099Z,97533.00
2024-01-07T11:08:36.754Z,97519.00
2024-01-07T11:11:13.636Z,97510.00
2024-01-07T11:13:50.123Z,97518.00
2024-01-07T11:16:44.094Z,97525.00
2024-01-07T11:19:20.734Z,97511.00
2024-01-07T11:21:48.436Z,97505.00
2024-01-07T11:24:54.748Z,97520.00
2024-01-07T11:27:23.616Z,97513.00
2024-01-07T11:30:03.639Z,97504.00
2024-01-07T11:32:31.481Z,97502.00
2024-01-07T11:35:10.986Z,97480.00
2024-01-07T11:37:38.785Z,97466.00
2024-01-07T11:40:09.222Z,97501.00
2024-01-07T11:42:43.936Z,97510.00
2024-01-07T11:45:14.094Z,97483.00
2024-01-07T11:47:41.677Z,97496.00
2024-01-07T11:50:17.742Z,97490.00
2024-01-07T11:52:45.306Z,97495.00
2024-01-07T11:55:14.401Z,97481.00
2024-01-07T11:57:56.782Z,97485.00
2024-01-07T12:00:36.484Z,97483.00
2024-01-07T12:03:14.737Z,97485.00
2024-01-07T12:05:44.926Z,97487.00
2024-01-07T12:08:16.796Z,97487.00
2024-01-07T12:10:56.928Z,97469.00
2024-01-07T12:13:25.248Z,97460.00
2024-01-07T12:16:01.728Z,97474.00
2024-01-07T12:18:29.706Z,97481.00
2024-01-07T12:21:33.099Z,97485.00
2024-01-07T12:24:00.596Z,97484.00
2024-01-07T12:26:28.490Z,97471.00
2024-01-07T12:29:03.714Z,97472.00
2024-01-07T12:31:33.307Z,97483.00
2024-01-07T12:34:02.963Z,97483.00
2024-01-07T12:36:39.747Z,97459.00
2024-01-07T12:39:07.206Z,97484.00
2024-01-07T12:41:36.884Z,97480.00
2024-01-07T12:44:11.084Z,97473.00
2024-01-07T12:46:38.598Z,97465.00
2024-01-07T12:49:07.198Z,97490.00
2024-01-07T12:51:46.056Z,97486.00
2024-01-07T12:54:14.733Z,97491.00
2024-01-07T12:56:42.173Z,97470.00
2024-01-07T12:59:16.755Z,97485.00
2024-01-07T13:01:45.583Z,97481.00
2024-01-07T13:04:13.254Z,97467.00
2024-01-07T13:06:51.463Z,97494.00
2024-01-07T13:09:18.977Z,97487.00
2024-01-07T13:11:46.440Z,97488.00
2024-01-07T13:14:20.721Z,97491.00
2024-01-07T13:16:48.105Z,97484.00
2024-01-07T13:19:15.632Z,97472.00
2024-01-07T13:21:50.714Z,97477.00
2024-01-07T13:24:18.128Z,97486.00
2024-01-07T13:26:45.528Z,97502.00
2024-01-07T13:29:22.191Z,97471.00
2024-01-07T13:31:49.649Z,97492.00
2024-01-07T13:34:20.509Z,97496.00
2024-01-07T13:36:57.764Z,97495.00
2024-01-07T13:39:25.248Z,97461.00
2024-01-07T13:41:54.938Z,97495.00
2024-01-07T13:44:28.734Z,97502.00
2024-01-07T13:46:56.142Z,97501.00
2024-01-07T13:49:36.887Z,97479.00
2024-01-07T13:52:06.426Z,97490.00
2024-01-07T13:54:36.246Z,97472.00
2024-01-07T13:57:10.742Z,97522.00
2024-01-07T13:59:38.231Z,97521.00
2024-01-07T14:02:07.363Z,97514.00
2024-01-07T14:04:43.702Z,97526.00
2024-01-07T14:07:12.561Z,97525.00
2024-01-07T14:09:39.903Z,97521.00
2024-01-07T14:12:13.757Z,97527.00
2024-01-07T14:14:41.122Z,97528.00
2024-01-07T14:17:08.486Z,97502.00
2024-01-07T14:19:42.832Z,97524.00
2024-01-07T14:22:11.626Z,97536.00
2024-01-07T14:24:39.034Z,97538.00
2024-01-07T14:27:12.737Z,97542.00
2024-01-07T14:29:42.856Z,97535.00
2024-01-07T14:32:12.216Z,97528.00
2024-01-07T14:34:46.734Z,97550.00
2024-01-07T14:37:22.227Z,97544.00
2024-01-07T14:39:55.792Z,97550.00
2024-01-07T14:42:23.201Z,97543.00
2024-01-07T14:44:51.540Z,97554.00
2024-01-07T14:47:25.743Z,97560.00
2024-01-07T14:49:53.085Z,97558.00
2024-01-07T14:52:21.789Z,97558.00
2024-01-07T14:54:55.797Z,97568.00
2024-01-07T14:57:23.196Z,97564.00
2024-01-07T14:59:50.454Z,97562.00
2024-01-07T15:02:24.755Z,97576.00
2024-01-07T15:04:52.178Z,97546.00
2024-01-07T15:07:21.873Z,97567.00
2024-01-07T15:09:55.772Z,97563.00
2024-01-07T15:12:23.133Z,97566.00
2024-01-07T15:14:50.453Z,97571.00
2024-01-07T15:17:24.753Z,97586.00
2024-01-07T15:19:52.268Z,97596.00
2024-01-07T15:22:40.118Z,97586.00
2024-01-07T15:25:15.820Z,97595.00
2024-01-07T15:27:43.282Z,97573.00
2024-01-07T15:30:11.318Z,97589.00
2024-01-07T15:32:44.783Z,97600.00
2024-01-07T15:35:12.141Z,97611.00
2024-01-07T15:37:40.917Z,97606.00
2024-01-07T15:40:15.864Z,97605.00
2024-01-07T15:42:43.274Z,97608.00
2024-01-07T15:45:10.944Z,97602.00
2024-01-07T15:47:47.731Z,97613.00
2024-01-07T15:50:15.600Z,97602.00
2024-01-07T15:52:44.362Z,97610.00
2024-01-07T15:55:21.897Z,97607.00
2024-01-07T15:57:49.361Z,97615.00
2024-01-07T16:00:17.404Z,97621.00
2024-01-07T16:02:52.840Z,97627.00
2024-01-07T16:05:20.440Z,97615.00
2024-01-07T16:07:51.965Z,97624.00
2024-01-07T16:10:25.852Z,97632.00
2024-01-07T16:12:53.326Z,97626.00
2024-01-07T16:15:20.684Z,97635.00
2024-01-07T16:17:54.879Z,97634.00
2024-01-07T16:20:22.321Z,97636.00
2024-01-07T16:22:51.037Z,97639.00
2024-01-07T16:25:28.978Z,97638.00
2024-01-07T16:28:00.453Z,97637.00
2024-01-07T16:30:37.336Z,97626.00
2024-01-07T16:33:09.971Z,97637.00
2024-01-07T16:35:47.253Z,97643.00
2024-01-07T16:38:18.065Z,97638.00
2024-01-07T16:40:48.520Z,97644.00
2024-01-07T16:43:22.854Z,97651.00
2024-01-07T16:45:50.461Z,97651.00
2024-01-07T16:50:14.321Z,97642.00
2024-01-07T16:51:12.922Z,97655.00
2024-01-07T16:53:41.953Z,97647.00
2024-01-07T16:56:09.412Z,97654.00
2024-01-07T16:58:43.806Z,97665.00
2024-01-07T17:01:11.266Z,97674.00
2024-01-07T17:03:38.845Z,97661.00
2024-01-07T17:06:13.065Z,97680.00
2024-01-07T17:08:41.847Z,97688.00
2024-01-07T17:11:09.196Z,97689.00
2024-01-07T17:13:42.822Z,97685.00
2024-01-07T17:16:14.701Z,97688.00
2024-01-07T17:18:42.112Z,97707.00
2024-01-07T17:21:15.846Z,97710.00
2024-01-07T17:23:44.721Z,97699.00
2024-01-07T17:26:13.468Z,97701.00
2024-01-07T17:28:50.815Z,97716.00
2024-01-07T17:31:18.148Z,97715.00
2024-01-07T17:33:45.784Z,97721.00
2024-01-07T17:36:19.822Z,97724.00
2024-01-07T17:38:48.615Z,97731.00
2024-01-07T17:41:19.470Z,97715.00
2024-01-07T17:43:56.910Z,97736.00
2024-01-07T17:46:24.298Z,97740.00
2024-01-07T17:48:51.684Z,97718.00
2024-01-07T17:51:26.838Z,97743.00
2024-01-07T17:53:55.724Z,97715.00
2024-01-07T17:56:23.078Z,97753.00
2024-01-07T17:58:56.882Z,97755.00
2024-01-07T18:01:24.381Z,97752.00
2024-01-07T18:03:51.916Z,97759.00
2024-01-07T18:06:25.941Z,97769.00
2024-01-07T18:08:54.805Z,97767.00
2024-01-07T18:11:24.162Z,97766.00
2024-01-07T18:13:57.910Z,97768.00
2024-01-07T18:16:25.276Z,97773.00
2024-01-07T18:18:52.667Z,97780.00
2024-01-07T18:21:34.607Z,97787.00
2024-01-07T18:24:03.930Z,97776.00
2024-01-07T18:26:31.382Z,97775.00
2024-01-07T18:29:04.906Z,97778.00
2024-01-07T18:31:32.306Z,97788.00
2024-01-07T18:33:59.766Z,97783.00
2024-01-07T18:36:34.166Z,97774.00
2024-01-07T18:39:05.897Z,97775.00
2024-01-07T18:41:33.570Z,97782.00
2024-01-07T18:44:10.637Z,97791.00
2024-01-07T18:46:40.100Z,97796.00
2024-01-07T18:49:15.890Z,97789.00
2024-01-07T18:51:43.184Z,97794.00
2024-01-07T18:54:16.172Z,97805.00
2024-01-07T18:56:49.856Z,97774.00
2024-01-07T18:59:18.919Z,97802.00
2024-01-07T19:01:46.307Z,97787.00
2024-01-07T19:04:26.950Z,97802.00
2024-01-07T19:06:54.675Z,97805.00
2024-01-07T19:09:34.141Z,97818.00
2024-01-07T19:12:03.313Z,97782.00
2024-01-07T19:14:32.625Z,97810.00
2024-01-07T19:17:18.554Z,97828.00
2024-01-07T19:19:46.032Z,97813.00
2024-01-07T19:22:19.977Z,97827.00
2024-01-07T19:24:53.080Z,97798.00
2024-01-07T19:27:29.341Z,97834.00
2024-01-07T19:29:56.756Z,97834.00
2024-01-07T19:32:26.023Z,97803.00
2024-01-07T19:35:04.577Z,97835.00
2024-01-07T19:37:33.521Z,97832.00
2024-01-07T19:40:16.933Z,97834.00
2024-01-07T19:42:44.318Z,97831.00
2024-01-07T19:45:14.389Z,97813.00
2024-01-07T19:47:50.073Z,97839.00
2024-01-07T19:50:20.411Z,97831.00
2024-01-07T19:52:47.826Z,97840.00
2024-01-07T19:55:39.200Z,97849.00
2024-01-07T19:58:07.844Z,97841.00
2024-01-07T20:00:48.108Z,97821.00
2024-01-07T20:03:15.643Z,97862.00
2024-01-07T20:05:43.169Z,97841.00
2024-01-07T20:08:17.985Z,97852.00
2024-01-07T20:10:50.301Z,97844.00
2024-01-07T20:13:19.497Z,97853.00
2024-01-07T20:15:57.311Z,97848.00
2024-01-07T20:18:26.831Z,97857.00
2024-01-07T20:21:09.219Z,97847.00
2024-01-07T20:23:36.681Z,97884.00
2024-01-07T20:26:07.385Z,97894.00
2024-01-07T20:28:41.065Z,97878.00
2024-01-07T20:31:15.422Z,97896.00
2024-01-07T20:33:52.087Z,97855.00
2024-01-07T20:36:21.496Z,97889.00
2024-01-07T20:38:57.693Z,97863.00
2024-01-07T20:41:33.051Z,97875.00
2024-01-07T20:44:01.972Z,97863.00
2024-01-07T20:46:29.372Z,97897.00
2024-01-07T20:49:03.188Z,97902.00
2024-01-07T20:51:36.509Z,97911.00
2024-01-07T20:54:10.965Z,97920.00
2024-01-07T20:56:43.030Z,97923.00
2024-01-07T20:59:10.886Z,97928.00
2024-01-07T21:01:52.013Z,97899.00
2024-01-07T21:04:19.560Z,97936.00
2024-01-07T21:06:55.110Z,97927.00
2024-01-07T21:09:24.954Z,97923.00
2024-01-07T21:11:53.742Z,97943.00
2024-01-07T21:14:29.906Z,97940.00
2024-01-07T21:16:57.647Z,97941.00
2024-01-07T21:19:25.025Z,97944.00
2024-01-07T21:22:02.189Z,97902.00
2024-01-07T21:24:29.612Z,97954.00
2024-01-07T21:26:58.440Z,97937.00
2024-01-07T21:29:33.069Z,97972.00
2024-01-07T21:32:00.536Z,97957.00
2024-01-07T21:34:29.172Z,97954.00
2024-01-07T21:37:02.953Z,97918.00
2024-01-07T21:39:30.351Z,97946.00
2024-01-07T21:42:10.987Z,97974.00
2024-01-07T21:44:38.362Z,97977.00
2024-01-07T21:47:06.015Z,97973.00
2024-01-07T21:49:39.957Z,97979.00
2024-01-07T21:52:07.409Z,97964.00
2024-01-07T21:54:36.785Z,97956.00
2024-01-07T21:57:13.009Z,97969.00
2024-01-07T21:59:40.405Z,97983.00
2024-01-07T22:02:11.139Z,97985.00
2024-01-07T22:04:45.595Z,97984.00
2024-01-07T22:07:13.135Z,97985.00
2024-01-07T22:09:40.558Z,97981.00
2024-01-07T22:12:15.963Z,97987.00
2024-01-07T22:14:43.278Z,97965.00
2024-01-07T22:17:10.616Z,97984.00
2024-01-07T22:19:47.449Z,97959.00
2024-01-07T22:22:14.812Z,97990.00
2024-01-07T22:24:42.118Z,97993.00
2024-01-07T22:27:22.186Z,97984.00
2024-01-07T22:29:49.636Z,97980.00
2024-01-07T22:32:17.089Z,97998.00
2024-01-07T22:34:51.011Z,97997.00
2024-01-07T22:37:18.414Z,98013.00
2024-01-07T22:39:45.756Z,98007.00
2024-01-07T22:42:24.010Z,98005.00
2024-01-07T22:44:51.313Z,97994.00
2024-01-07T22:47:18.728Z,97997.00
2024-01-07T22:49:56.471Z,98013.00
2024-01-07T22:52:25.267Z,98013.00
2024-01-07T22:54:53.976Z,97995.00
2024-01-07T22:57:30.171Z,98016.00
2024-01-07T22:59:57.506Z,98021.00
2024-01-07T23:02:26.030Z,98012.00
2024-01-07T23:05:00.053Z,98026.00
2024-01-07T23:07:30.422Z,98018.00
2024-01-07T23:09:57.798Z,98031.00
2024-01-07T23:12:33.031Z,98032.00
2024-01-07T23:15:00.380Z,98018.00
2024-01-07T23:17:28.104Z,98024.00
2024-01-07T23:20:05.020Z,98026.00
2024-01-07T23:22:34.903Z,98032.00
2024-01-07T23:25:24.595Z,98011.00
2024-01-07T23:27:56.895Z,98043.00
2024-01-07T23:33:17.405Z,98013.00
2024-01-07T23:36:13.053Z,98011.00
2024-01-07T23:38:40.582Z,98035.00
2024-01-07T23:41:30.597Z,98038.00
2024-01-07T23:44:04.243Z,98052.00
2024-01-07T23:46:38.085Z,98047.00
2024-01-07T23:49:05.501Z,98025.00
2024-01-07T23:51:33.022Z,98068.00
2024-01-07T23:54:07.030Z,98042.00
2024-01-07T23:56:40.429Z,98068.00
2024-01-07T23:59:16.111Z,98065.00
